Αναφορές METAR

 

LGKZ - Kozani (civ/Army, Greece
Distance from station: ΝΔ 41km
Ενημερώθηκε: 17/10/2019 12:50
Αίθριος
Αίθριος
 Ανεμος από calm
Ανεμος: Απνοια
Θερμοκρασία: 22°C
Σημείο Δρόσου: 13°C
Υγρασία: 57%
Βαρόμετρο: 1020 hPa
Περίληψη: Αίθριος
Visibility: greater than 10 km
2019/10/17 09:50 LGKZ 170950Z 00000KT CAVOK 22/13 Q1020
LGTS - Thessaloniki/Mik, Greece
Distance from station: Α 64km
Ενημερώθηκε: 17/10/2019 13:20
Few Clouds
Few Clouds
 Ανεμος από ΒΔ
Ανεμος: ΒΔ 11 km/h
Θερμοκρασία: 21°C
Σημείο Δρόσου: 17°C
Υγρασία: 78%
Βαρόμετρο: 1019 hPa
Clouds: Few Clouds
Visibility: 10 km
Cloud details: Few Clouds 457 m
2019/10/17 10:20 LGTS 171020Z 31006KT 9999 FEW015 21/17 Q1019 NOSIG
 
LGIO - Ioannina, Greece
Distance from station: ΝΔ 149km
Ενημερώθηκε: 17/10/2019 13:20
Few Clouds
Few Clouds
 Ανεμος από calm
Ανεμος: Απνοια
Θερμοκρασία: 22°C
Σημείο Δρόσου: 15°C
Υγρασία: 65%
Βαρόμετρο: 1019 hPa
Clouds: Few Clouds
Visibility: 10 km
Cloud details: Few Clouds 914 m
2019/10/17 10:20 LGIO 171020Z 00000KT 9999 FEW030 22/15 Q1019
LGBL - Nea Anchialos, Greece
Distance from station: ΝΝΑ 154km
Ενημερώθηκε: 17/10/2019 13:20
Μερικώς νεφελώδης
Μερικώς νεφελώδης
 Ανεμος από Α
Ανεμος: Α 9 km/h
Θερμοκρασία: 23°C
Σημείο Δρόσου: 16°C
Υγρασία: 65%
Βαρόμετρο: 1018 hPa
Clouds: Μερικώς νεφελώδης
Visibility: 10 km
Cloud details: Few Clouds 762 m
Μερικώς νεφελώδης 2438 m
2019/10/17 10:20 LGBL 171020Z 10005KT 9999 FEW025 SCT080 23/16 Q1018
 
LGSK - Skiathos Island, Greece
Distance from station: ΝΑ 185km
Ενημερώθηκε: 17/10/2019 12:50
Μερικώς νεφελώδης
Μερικώς νεφελώδης
 Ανεμος από ΒΒΑ
Ανεμος: ΒΒΑ 7 km/h
Θερμοκρασία: 23°C
Σημείο Δρόσου: 20°C
Υγρασία: 83%
Βαρόμετρο: 1018 hPa
Clouds: Μερικώς νεφελώδης
Visibility: 10 km
Cloud details: Few Clouds 366 m
Μερικώς νεφελώδης 610 m
2019/10/17 09:50 LGSK 170950Z 03004KT 9999 FEW012 SCT020 23/20 Q1018
LGKV - Kavala/Chrisoupo, Greece
Distance from station: ΑΒΑ 208km
Ενημερώθηκε: 17/10/2019 12:50
Μερικώς νεφελώδης
Μερικώς νεφελώδης
 Ανεμος από varies
Ανεμος: varies 6 km/h
Θερμοκρασία: 22°C
Σημείο Δρόσου: 16°C
Υγρασία: 69%
Βαρόμετρο: 1018 hPa
Clouds: Μερικώς νεφελώδης
Visibility: 9 km
Cloud details: Few Clouds 244 m
Μερικώς νεφελώδης 2438 m
2019/10/17 09:50 LGKV 170950Z VRB03KT 9000 FEW008 SCT080 22/16 Q1018
 
LGPZ - Preveza/Aktion, Greece
Distance from station: ΝΔ 217km
Ενημερώθηκε: 17/10/2019 13:20
Few Clouds
Few Clouds
 Ανεμος από varies
Ανεμος: varies 6 km/h
Θερμοκρασία: 25°C
Σημείο Δρόσου: 19°C
Υγρασία: 69%
Βαρόμετρο: 1018 hPa
Clouds: Few Clouds
Visibility: 10 km
Cloud details: Few Clouds 549 m
2019/10/17 10:20 LGPZ 171020Z VRB03KT 9999 FEW018 25/19 Q1018
LGKR - Ioannis Kapodist, Greece
Distance from station: ΔΝΔ 219km
Ενημερώθηκε: 17/10/2019 12:50
Few Clouds
Few Clouds
 Ανεμος από ΝΑ
Ανεμος: ΝΑ 9 km/h
Θερμοκρασία: 25°C
Σημείο Δρόσου: 18°C
Υγρασία: 65%
Βαρόμετρο: 1017 hPa
Clouds: Few Clouds
Visibility: 10 km
Cloud details: Few Clouds 549 m
2019/10/17 09:50 LGKR 170950Z 14005KT 9999 FEW018 25/18 Q1017 NOSIG
 
LGSY - Skiros, Greece
Distance from station: ΝΑ 261km
Ενημερώθηκε: 17/10/2019 13:20
Μερικώς νεφελώδης
Μερικώς νεφελώδης
 Ανεμος από Β
Ανεμος: Β 13 km/h
Θερμοκρασία: 22°C
Σημείο Δρόσου: 17°C
Υγρασία: 73%
Βαρόμετρο: 1018 hPa
Clouds: Μερικώς νεφελώδης
Visibility: 10 km
Cloud details: Μερικώς νεφελώδης 610 m
2019/10/17 10:20 LGSY 171020Z 36007KT 9999 SCT020 22/17 Q1018
LGLM - Limnos Island Ar, Greece
Distance from station: ΑΝΑ 266km
Ενημερώθηκε: 17/10/2019 13:20
Few Clouds
Few Clouds
 Ανεμος από ΒΑ
Ανεμος: ΒΑ 19 km/h
Θερμοκρασία: 20°C
Σημείο Δρόσου: 17°C
Υγρασία: 83%
Βαρόμετρο: 1018 hPa
Clouds: Few Clouds
Visibility: 10 km
Cloud details: Few Clouds 549 m
2019/10/17 10:20 LGLM 171020Z 04010KT 9999 FEW018 20/17 Q1018
 
LGRX - Araxos (civ/Afb), Greece
Distance from station: ΝΝΔ 271km
Ενημερώθηκε: 17/10/2019 13:20
Few Clouds
Few Clouds
 Ανεμος από Δ
Ανεμος: Δ 7 km/h
Θερμοκρασία: 24°C
Σημείο Δρόσου: 19°C
Υγρασία: 74%
Βαρόμετρο: 1018 hPa
Clouds: Few Clouds
Visibility: 10 km
Cloud details: Few Clouds 549 m
2019/10/17 10:20 LGRX 171020Z 28004KT 9999 FEW018 24/19 Q1018
LGEL - Elefsis (hel-Afb, Greece
Distance from station: ΝΝΑ 297km
Ενημερώθηκε: 17/10/2019 13:20
Μερικώς νεφελώδης
Μερικώς νεφελώδης
 Ανεμος από varies
Ανεμος: varies 6 km/h
Θερμοκρασία: 26°C
Σημείο Δρόσου: 14°C
Υγρασία: 48%
Βαρόμετρο: 1017 hPa
Clouds: Μερικώς νεφελώδης
Visibility: 10 km
Cloud details: Few Clouds 762 m
Μερικώς νεφελώδης 2134 m
2019/10/17 10:20 LGEL 171020Z VRB03KT 9999 FEW025 SCT070 26/14 Q1017
 
LGAD - Andravida (civ/A, Greece
Distance from station: ΝΝΔ 301km
Ενημερώθηκε: 17/10/2019 13:20
Few Clouds
Few Clouds
 Ανεμος από ΒΔ
Ανεμος: ΒΔ 11 km/h
Θερμοκρασία: 24°C
Σημείο Δρόσου: 19°C
Υγρασία: 74%
Βαρόμετρο: 1018 hPa
Clouds: Few Clouds
Visibility: 10 km
Cloud details: Few Clouds 549 m
2019/10/17 10:20 LGAD 171020Z 31006KT 9999 FEW018 24/19 Q1018
LGKF - Kefallinia, Greece
Distance from station: ΝΝΔ 305km
Ενημερώθηκε: 17/10/2019 12:50
Few Clouds
Few Clouds
 Ανεμος από Δ
Ανεμος: Δ 9 km/h
Θερμοκρασία: 25°C
Σημείο Δρόσου: 19°C
Υγρασία: 69%
Βαρόμετρο: 1018 hPa
Clouds: Few Clouds
Visibility: 10 km
Cloud details: Few Clouds 488 m
2019/10/17 09:50 LGKF 170950Z 26005KT 9999 FEW016 25/19 Q1018